createdAt,value
2022-08-05T00:01:35.466Z,1.63
2022-08-05T00:04:08.247Z,2.15
2022-08-05T00:06:36.444Z,1.60
2022-08-05T00:09:12.802Z,1.65
2022-08-05T00:11:49.608Z,1.92
2022-08-05T00:14:27.722Z,1.92
2022-08-05T00:17:02.094Z,1.40
2022-08-05T00:19:33.477Z,1.45
2022-08-05T00:22:11.936Z,1.35
2022-08-05T00:24:42.488Z,1.42
2022-08-05T00:27:13.929Z,1.50
2022-08-05T00:29:44.304Z,1.58
2022-08-05T00:32:15.470Z,1.48
2022-08-05T00:35:05.476Z,1.30
2022-08-05T00:37:50.670Z,1.38
2022-08-05T00:40:26.991Z,1.27
2022-08-05T00:42:58.085Z,1.77
2022-08-05T00:45:38.951Z,1.20
2022-08-05T00:48:13.453Z,1.42
2022-08-05T00:50:44.378Z,1.05
2022-08-05T00:54:01.084Z,1.13
2022-08-05T00:56:07.873Z,1.20
2022-08-05T00:58:36.002Z,1.42
2022-08-05T01:01:08.565Z,1.20
2022-08-05T01:03:37.504Z,1.33
2022-08-05T01:06:05.779Z,0.88
2022-08-05T01:08:43.333Z,1.10
2022-08-05T01:11:33.511Z,1.20
2022-08-05T01:14:15.613Z,1.40
2022-08-05T01:16:52.219Z,1.08
2022-08-05T01:20:01.662Z,1.33
2022-08-05T01:22:53.083Z,1.30
2022-08-05T01:26:00.643Z,1.00
2022-08-05T01:28:39.679Z,1.45
2022-08-05T01:31:13.263Z,0.98
2022-08-05T01:33:53.553Z,1.05
2022-08-05T01:36:30.483Z,1.27
2022-08-05T01:39:01.001Z,1.05
2022-08-05T01:41:36.595Z,1.10
2022-08-05T01:44:11.220Z,1.52
2022-08-05T01:46:46.241Z,1.45
2022-08-05T01:49:24.167Z,1.23
2022-08-05T01:51:59.531Z,1.40
2022-08-05T01:54:45.999Z,1.50
2022-08-05T01:58:18.741Z,0.95
2022-08-05T02:00:15.556Z,1.52
2022-08-05T02:02:55.137Z,1.13
2022-08-05T02:05:28.762Z,1.23
2022-08-05T02:08:01.735Z,1.10
2022-08-05T02:10:36.986Z,1.20
2022-08-05T02:13:16.071Z,1.73
2022-08-05T02:15:55.027Z,0.93
2022-08-05T02:18:34.880Z,1.13
2022-08-05T02:21:13.249Z,1.48
2022-08-05T02:23:47.596Z,0.75
2022-08-05T02:26:26.503Z,1.15
2022-08-05T02:28:58.181Z,0.93
2022-08-05T02:31:34.573Z,1.38
2022-08-05T02:34:09.896Z,1.20
2022-08-05T02:36:46.569Z,1.98
2022-08-05T02:39:21.547Z,1.38
2022-08-05T02:42:01.347Z,2.10
2022-08-05T02:44:31.684Z,1.20
2022-08-05T02:47:03.741Z,1.75
2022-08-05T02:49:40.571Z,1.05
2022-08-05T02:52:13.641Z,1.42
2022-08-05T02:55:01.871Z,0.90
2022-08-05T02:58:11.880Z,1.38
2022-08-05T03:00:25.447Z,1.42
2022-08-05T03:02:59.639Z,0.70
2022-08-05T03:06:55.813Z,1.08
2022-08-05T03:08:29.589Z,1.20
2022-08-05T03:11:53.469Z,0.73
2022-08-05T03:13:52.222Z,0.60
2022-08-05T03:16:31.542Z,1.13
2022-08-05T03:19:04.198Z,1.00
2022-08-05T03:21:48.543Z,1.05
2022-08-05T03:24:18.468Z,1.20
2022-08-05T03:26:58.787Z,1.08
2022-08-05T03:29:45.283Z,1.38
2022-08-05T03:32:16.308Z,1.10
2022-08-05T03:34:50.643Z,1.30
2022-08-05T03:37:22.643Z,1.20
2022-08-05T03:39:59.138Z,0.98
2022-08-05T03:42:29.131Z,1.13
2022-08-05T03:44:59.812Z,0.90
2022-08-05T03:47:30.586Z,1.05
2022-08-05T03:50:05.405Z,1.35
2022-08-05T03:55:51.362Z,1.17
2022-08-05T03:56:06.229Z,1.20
2022-08-05T03:58:37.688Z,1.40
2022-08-05T04:01:13.163Z,0.57
2022-08-05T04:04:10.218Z,1.30
2022-08-05T04:06:35.733Z,1.20
2022-08-05T04:09:05.995Z,1.15
2022-08-05T04:11:47.342Z,1.15
2022-08-05T04:17:00.783Z,1.00
2022-08-05T04:19:30.807Z,1.10
2022-08-05T04:22:05.827Z,0.82
2022-08-05T04:24:43.828Z,0.93
2022-08-05T04:27:14.174Z,1.42
2022-08-05T04:29:43.214Z,0.85
2022-08-05T04:32:11.500Z,0.90
2022-08-05T04:34:43.019Z,1.05
2022-08-05T04:37:12.866Z,1.02
2022-08-05T04:39:40.709Z,1.10
2022-08-05T04:42:10.225Z,1.10
2022-08-05T04:44:39.206Z,1.33
2022-08-05T04:47:09.726Z,0.93
2022-08-05T04:50:02.635Z,1.35
2022-08-05T04:52:29.213Z,1.50
2022-08-05T04:55:13.771Z,1.00
2022-08-05T04:57:47.573Z,1.20
2022-08-05T05:00:17.227Z,0.95
2022-08-05T05:02:45.037Z,1.08
2022-08-05T05:05:16.857Z,0.90
2022-08-05T05:08:02.200Z,1.33
2022-08-05T05:10:33.243Z,1.00
2022-08-05T05:13:04.308Z,1.05
2022-08-05T05:15:59.260Z,0.95
2022-08-05T05:18:28.746Z,1.20
2022-08-05T05:21:01.553Z,0.93
2022-08-05T05:24:01.790Z,0.93
2022-08-05T05:26:18.775Z,1.10
2022-08-05T05:28:46.572Z,1.25
2022-08-05T05:31:14.773Z,0.90
2022-08-05T05:33:59.593Z,0.85
2022-08-05T05:36:30.344Z,1.00
2022-08-05T05:39:03.758Z,1.00
2022-08-05T05:41:40.565Z,0.98
2022-08-05T05:44:27.008Z,1.13
2022-08-05T05:46:58.269Z,0.93
2022-08-05T05:49:26.271Z,1.08
2022-08-05T05:51:54.182Z,0.80
2022-08-05T05:54:50.299Z,1.08
2022-08-05T05:57:13.497Z,0.98
2022-08-05T05:59:41.685Z,0.80
2022-08-05T06:02:11.093Z,1.08
2022-08-05T06:04:38.915Z,0.85
2022-08-05T06:07:06.907Z,0.90
2022-08-05T06:10:00.253Z,1.05
2022-08-05T06:12:27.689Z,1.00
2022-08-05T06:14:56.324Z,0.85
2022-08-05T06:17:30.987Z,1.42
2022-08-05T06:22:29.951Z,0.70
2022-08-05T06:24:59.716Z,0.80
2022-08-05T06:28:09.091Z,0.85
2022-08-05T06:30:19.910Z,1.13
2022-08-05T06:32:50.554Z,1.20
2022-08-05T06:36:03.100Z,0.88
2022-08-05T06:38:11.447Z,1.00
2022-08-05T06:40:44.516Z,1.05
2022-08-05T06:43:57.714Z,1.38
2022-08-05T06:46:07.351Z,2.40
2022-08-05T06:48:53.113Z,1.05
2022-08-05T06:51:30.225Z,1.50
2022-08-05T06:54:00.180Z,1.17
2022-08-05T06:56:34.887Z,0.82
2022-08-05T06:59:03.522Z,1.52
2022-08-05T07:01:36.651Z,1.37
2022-08-05T07:04:05.148Z,1.48
2022-08-05T07:06:32.919Z,0.80
2022-08-05T07:09:04.082Z,1.00
2022-08-05T07:11:37.133Z,1.23
2022-08-05T07:14:29.376Z,1.38
2022-08-05T07:18:00.457Z,1.27
2022-08-05T07:20:31.203Z,1.20
2022-08-05T07:22:39.473Z,1.08
2022-08-05T07:25:54.182Z,1.17
2022-08-05T07:28:05.996Z,1.33
2022-08-05T07:30:40.450Z,1.75
2022-08-05T07:33:16.467Z,1.33
2022-08-05T07:36:02.655Z,1.17
2022-08-05T07:38:42.846Z,1.42
2022-08-05T07:42:08.166Z,1.45
2022-08-05T07:44:14.106Z,1.42
2022-08-05T07:46:48.520Z,1.10
2022-08-05T07:49:18.133Z,1.17
2022-08-05T07:51:53.717Z,1.27
2022-08-05T07:54:30.734Z,1.10
2022-08-05T07:57:17.678Z,1.10
2022-08-05T07:59:52.309Z,1.50
2022-08-05T08:02:30.907Z,1.50
2022-08-05T08:05:14.641Z,1.40
2022-08-05T08:07:59.966Z,1.70
2022-08-05T08:10:29.204Z,1.60
2022-08-05T08:12:58.765Z,3.03
2022-08-05T08:16:33.634Z,2.03
2022-08-05T08:18:16.165Z,1.55
2022-08-05T08:21:02.475Z,1.40
2022-08-05T08:24:03.316Z,1.70
2022-08-05T08:26:26.806Z,1.60
2022-08-05T08:29:02.370Z,1.67
2022-08-05T08:31:47.494Z,1.60
2022-08-05T08:34:16.186Z,1.88
2022-08-05T08:36:54.724Z,1.77
2022-08-05T08:39:24.689Z,1.88
2022-08-05T08:41:59.514Z,1.88
2022-08-05T08:45:23.521Z,1.55
2022-08-05T08:48:05.618Z,1.92
2022-08-05T08:50:52.083Z,2.08
2022-08-05T08:53:07.874Z,1.73
2022-08-05T08:56:03.865Z,1.50
2022-08-05T08:58:26.109Z,1.52
2022-08-05T09:01:11.037Z,1.50
2022-08-05T09:03:48.378Z,1.55
2022-08-05T09:06:27.845Z,1.85
2022-08-05T09:08:58.129Z,1.63
2022-08-05T09:11:53.790Z,1.75
2022-08-05T09:14:57.071Z,2.70
2022-08-05T09:17:03.122Z,1.80
2022-08-05T09:19:36.551Z,1.90
2022-08-05T09:22:31.314Z,1.70
2022-08-05T09:25:13.729Z,1.80
2022-08-05T09:28:05.541Z,1.83
2022-08-05T09:30:35.062Z,2.23
2022-08-05T09:33:04.805Z,2.10
2022-08-05T09:35:34.242Z,1.83
2022-08-05T09:38:16.723Z,1.77
2022-08-05T09:40:52.465Z,2.28
2022-08-05T09:43:40.834Z,1.80
2022-08-05T09:46:28.062Z,1.90
2022-08-05T09:49:07.345Z,2.05
2022-08-05T09:51:49.469Z,2.03
2022-08-05T09:54:30.398Z,1.63
2022-08-05T09:57:01.498Z,1.52
2022-08-05T09:59:35.227Z,1.45
2022-08-05T10:02:05.067Z,1.88
2022-08-05T10:04:38.409Z,1.65
2022-08-05T10:07:20.064Z,1.48
2022-08-05T10:10:04.054Z,1.90
2022-08-05T10:12:50.474Z,1.70
2022-08-05T10:15:23.106Z,1.80
2022-08-05T10:18:14.193Z,1.70
2022-08-05T10:20:48.436Z,1.27
2022-08-05T10:23:34.581Z,1.90
2022-08-05T10:26:13.854Z,1.83
2022-08-05T10:32:47.374Z,1.80
2022-08-05T10:34:03.285Z,1.67
2022-08-05T10:36:31.811Z,1.90
2022-08-05T10:39:25.061Z,1.83
2022-08-05T10:42:18.444Z,1.83
2022-08-05T10:44:47.496Z,1.80
2022-08-05T10:47:26.779Z,1.40
2022-08-05T10:50:31.659Z,1.60
2022-08-05T10:53:00.016Z,2.10
2022-08-05T10:55:30.467Z,1.77
2022-08-05T10:58:15.616Z,1.90
2022-08-05T11:00:47.923Z,1.73
2022-08-05T11:03:24.215Z,1.52
2022-08-05T11:06:21.265Z,1.48
2022-08-05T11:09:24.479Z,1.60
2022-08-05T11:12:03.112Z,2.05
2022-08-05T11:17:58.239Z,2.00
2022-08-05T11:20:45.139Z,1.77
2022-08-05T11:24:04.472Z,2.00
2022-08-05T11:26:33.525Z,1.35
2022-08-05T11:29:13.884Z,3.38
2022-08-05T11:31:57.714Z,2.25
2022-08-05T11:34:50.944Z,1.90
2022-08-05T11:38:27.852Z,1.90
2022-08-05T11:41:14.060Z,2.20
2022-08-05T11:44:04.551Z,1.77
2022-08-05T11:46:58.113Z,1.75
2022-08-05T11:49:26.880Z,2.00
2022-08-05T11:51:57.527Z,1.70
2022-08-05T11:54:33.737Z,1.52
2022-08-05T11:57:08.627Z,2.08
2022-08-05T11:59:53.460Z,1.27
2022-08-05T12:02:33.124Z,1.45
2022-08-05T12:05:07.617Z,1.77
2022-08-05T12:08:08.385Z,1.58
2022-08-05T12:10:39.051Z,1.77
2022-08-05T12:13:27.899Z,1.70
2022-08-05T12:16:15.060Z,1.88
2022-08-05T12:18:49.523Z,1.83
2022-08-05T12:21:26.900Z,2.58
2022-08-05T12:24:05.151Z,2.08
2022-08-05T12:26:35.324Z,1.98
2022-08-05T12:29:04.867Z,2.20
2022-08-05T12:31:43.806Z,1.70
2022-08-05T12:34:23.493Z,2.03
2022-08-05T12:36:53.695Z,2.13
2022-08-05T12:39:23.910Z,2.33
2022-08-05T12:42:02.166Z,1.90
2022-08-05T12:44:34.058Z,1.98
2022-08-05T12:47:03.607Z,2.03
2022-08-05T12:50:03.113Z,1.85
2022-08-05T12:52:41.907Z,2.15
2022-08-05T12:55:25.368Z,2.10
2022-08-05T12:58:49.052Z,2.00
2022-08-05T13:01:59.948Z,1.95
2022-08-05T13:03:38.990Z,1.92
2022-08-05T13:06:16.058Z,2.15
2022-08-05T13:11:46.968Z,2.15
2022-08-05T13:14:19.668Z,2.03
2022-08-05T13:16:50.989Z,2.33
2022-08-05T13:19:22.481Z,2.00
2022-08-05T13:21:52.621Z,1.95
2022-08-05T13:24:36.282Z,1.95
2022-08-05T13:27:17.216Z,2.10
2022-08-05T13:30:33.151Z,2.15
2022-08-05T13:32:42.252Z,1.90
2022-08-05T13:35:22.179Z,1.90
2022-08-05T13:37:55.940Z,2.22
2022-08-05T13:40:36.682Z,1.80
2022-08-05T13:43:12.193Z,2.08
2022-08-05T13:45:43.286Z,2.20
2022-08-05T13:48:58.677Z,1.85
2022-08-05T13:51:07.342Z,2.00
2022-08-05T13:53:48.133Z,1.88
2022-08-05T13:56:18.367Z,2.15
2022-08-05T13:58:53.111Z,1.77
2022-08-05T14:01:27.420Z,2.20
2022-08-05T14:04:26.734Z,1.85
2022-08-05T14:06:58.740Z,2.28
2022-08-05T14:09:46.495Z,2.22
2022-08-05T14:12:18.152Z,2.00
2022-08-05T14:14:59.962Z,1.77
2022-08-05T14:17:28.368Z,1.73
2022-08-05T14:20:01.007Z,2.30
2022-08-05T14:22:34.525Z,2.47
2022-08-05T14:25:06.067Z,2.03
2022-08-05T14:27:34.298Z,2.10
2022-08-05T14:30:02.154Z,1.77
2022-08-05T14:32:32.408Z,2.10
2022-08-05T14:35:01.240Z,2.25
2022-08-05T14:37:45.672Z,1.95
2022-08-05T14:40:18.121Z,2.58
2022-08-05T14:42:46.494Z,2.22
2022-08-05T14:45:16.870Z,3.00
2022-08-05T14:48:02.659Z,1.92
2022-08-05T14:50:32.482Z,2.38
2022-08-05T14:53:00.794Z,2.47
2022-08-05T14:55:38.982Z,2.10
2022-08-05T14:58:12.135Z,2.22
2022-08-05T15:03:33.939Z,2.17
2022-08-05T15:06:14.948Z,2.22
2022-08-05T15:08:59.390Z,1.95
2022-08-05T15:11:51.939Z,1.75
2022-08-05T15:14:34.769Z,2.58
2022-08-05T15:17:44.836Z,1.90
2022-08-05T15:19:57.886Z,1.70
2022-08-05T15:22:27.047Z,2.03
2022-08-05T15:24:55.650Z,1.95
2022-08-05T15:27:25.508Z,1.80
2022-08-05T15:29:54.213Z,1.63
2022-08-05T15:32:28.724Z,2.13
2022-08-05T15:34:57.024Z,2.15
2022-08-05T15:38:34.337Z,1.70
2022-08-05T15:41:00.838Z,2.15
2022-08-05T15:43:12.804Z,1.95
2022-08-05T15:45:47.925Z,2.10
2022-08-05T15:48:29.683Z,2.00
2022-08-05T15:50:58.159Z,2.15
2022-08-05T15:53:38.544Z,1.92
2022-08-05T15:56:17.999Z,2.10
2022-08-05T15:58:47.386Z,2.10
2022-08-05T16:01:17.391Z,1.90
2022-08-05T16:03:50.263Z,2.00
2022-08-05T16:06:20.924Z,1.85
2022-08-05T16:08:53.652Z,1.95
2022-08-05T16:11:39.861Z,2.10
2022-08-05T16:14:09.756Z,1.90
2022-08-05T16:16:37.879Z,2.22
2022-08-05T16:19:06.503Z,2.10
2022-08-05T16:21:59.967Z,2.03
2022-08-05T16:24:39.528Z,1.98
2022-08-05T16:29:40.577Z,2.30
2022-08-05T16:32:10.088Z,1.90
2022-08-05T16:34:41.762Z,2.30
2022-08-05T16:38:03.202Z,2.00
2022-08-05T16:40:04.257Z,1.83
2022-08-05T16:42:36.200Z,2.00
2022-08-05T16:46:06.026Z,1.95
2022-08-05T16:47:58.520Z,2.05
2022-08-05T16:50:30.136Z,2.25
2022-08-05T16:53:00.294Z,1.95
2022-08-05T16:55:47.054Z,2.10
2022-08-05T16:58:15.299Z,2.58
2022-08-05T17:00:49.665Z,2.10
2022-08-05T17:03:20.546Z,2.50
2022-08-05T17:05:53.842Z,2.00
2022-08-05T17:08:36.001Z,2.53
2022-08-05T17:11:16.600Z,2.10
2022-08-05T17:13:45.586Z,2.08
2022-08-05T17:16:35.956Z,1.83
2022-08-05T17:19:03.086Z,1.67
2022-08-05T17:21:37.053Z,2.13
2022-08-05T17:24:08.342Z,2.20
2022-08-05T17:26:55.567Z,2.03
2022-08-05T17:29:33.854Z,2.20
2022-08-05T17:32:17.454Z,2.30
2022-08-05T17:34:47.795Z,2.33
2022-08-05T17:37:40.040Z,3.08
2022-08-05T17:40:10.345Z,2.35
2022-08-05T17:42:42.903Z,2.00
2022-08-05T17:45:20.738Z,1.77
2022-08-05T17:47:55.102Z,1.88
2022-08-05T17:50:28.558Z,1.75
2022-08-05T17:52:59.796Z,2.00
2022-08-05T17:55:38.147Z,2.15
2022-08-05T17:58:11.196Z,2.08
2022-08-05T18:00:45.164Z,1.70
2022-08-05T18:03:59.517Z,1.60
2022-08-05T18:06:11.128Z,1.38
2022-08-05T18:08:44.423Z,1.50
2022-08-05T18:11:23.892Z,1.48
2022-08-05T18:13:54.552Z,1.73
2022-08-05T18:16:23.333Z,2.20
2022-08-05T18:18:52.734Z,1.65
2022-08-05T18:21:22.670Z,1.60
2022-08-05T18:23:54.322Z,1.58
2022-08-05T18:26:27.765Z,1.52
2022-08-05T18:28:58.489Z,2.20
2022-08-05T18:31:32.924Z,2.28
2022-08-05T18:34:05.796Z,2.28
2022-08-05T18:36:36.189Z,2.28
2022-08-05T18:39:06.661Z,2.30
2022-08-05T18:41:55.214Z,2.00
2022-08-05T18:44:34.760Z,2.03
2022-08-05T18:47:04.591Z,1.98
2022-08-05T18:49:57.974Z,2.42
2022-08-05T18:52:35.771Z,1.90
2022-08-05T18:55:10.299Z,1.65
2022-08-05T18:57:43.642Z,2.40
2022-08-05T19:00:28.468Z,2.15
2022-08-05T19:03:03.681Z,1.55
2022-08-05T19:06:12.566Z,1.65
2022-08-05T19:08:30.863Z,2.15
2022-08-05T19:11:04.729Z,2.20
2022-08-05T19:13:36.132Z,1.88
2022-08-05T19:16:25.367Z,2.10
2022-08-05T19:18:56.862Z,2.20
2022-08-05T19:21:34.177Z,1.48
2022-08-05T19:24:08.231Z,2.05
2022-08-05T19:29:12.101Z,1.58
2022-08-05T19:31:51.005Z,1.33
2022-08-05T19:34:19.157Z,2.22
2022-08-05T19:36:48.308Z,1.83
2022-08-05T19:39:17.282Z,1.92
2022-08-05T19:42:06.352Z,1.83
2022-08-05T19:44:37.384Z,1.88
2022-08-05T19:47:16.163Z,2.30
2022-08-05T19:49:44.540Z,1.67
2022-08-05T19:52:31.790Z,2.20
2022-08-05T19:55:07.261Z,2.50
2022-08-05T19:58:06.713Z,1.75
2022-08-05T20:00:37.424Z,2.10
2022-08-05T20:03:09.164Z,2.00
2022-08-05T20:05:50.243Z,2.03
2022-08-05T20:08:24.434Z,2.00
2022-08-05T20:10:53.576Z,1.58
2022-08-05T20:13:29.833Z,1.00
2022-08-05T20:15:58.272Z,1.42
2022-08-05T20:18:35.171Z,1.38
2022-08-05T20:21:06.699Z,1.45
2022-08-05T20:23:40.765Z,2.05
2022-08-05T20:26:20.702Z,2.75
2022-08-05T20:28:50.527Z,1.75
2022-08-05T20:31:22.926Z,1.40
2022-08-05T20:33:56.959Z,1.42
2022-08-05T20:36:25.633Z,1.45
2022-08-05T20:38:57.779Z,1.25
2022-08-05T20:41:43.825Z,1.40
2022-08-05T20:44:17.104Z,1.30
2022-08-05T20:46:45.813Z,1.85
2022-08-05T20:49:13.620Z,1.55
2022-08-05T20:51:41.432Z,1.27
2022-08-05T20:54:14.142Z,1.83
2022-08-05T20:56:42.682Z,1.48
2022-08-05T20:59:14.011Z,1.30
2022-08-05T21:01:47.360Z,1.63
2022-08-05T21:04:16.346Z,1.73
2022-08-05T21:06:45.791Z,1.42
2022-08-05T21:09:16.475Z,1.88
2022-08-05T21:12:07.338Z,1.88
2022-08-05T21:14:35.047Z,1.08
2022-08-05T21:17:04.911Z,1.70
2022-08-05T21:19:46.390Z,1.70
2022-08-05T21:22:23.571Z,1.67
2022-08-05T21:24:54.906Z,1.20
2022-08-05T21:27:25.373Z,1.40
2022-08-05T21:29:56.350Z,1.20
2022-08-05T21:32:26.946Z,1.80
2022-08-05T21:35:08.599Z,1.80
2022-08-05T21:37:53.019Z,1.42
2022-08-05T21:40:23.561Z,1.52
2022-08-05T21:42:53.635Z,1.65
2022-08-05T21:45:24.482Z,1.35
2022-08-05T21:47:57.231Z,1.30
2022-08-05T21:50:26.228Z,1.58
2022-08-05T21:52:58.754Z,1.58
2022-08-05T21:56:01.418Z,1.70
2022-08-05T21:58:24.930Z,1.80
2022-08-05T22:01:00.767Z,1.52
2022-08-05T22:03:53.243Z,1.60
2022-08-05T22:06:22.601Z,1.75
2022-08-05T22:08:52.615Z,1.20
2022-08-05T22:11:35.145Z,1.75
2022-08-05T22:14:19.716Z,1.60
2022-08-05T22:16:53.174Z,1.35
2022-08-05T22:20:02.227Z,1.60
2022-08-05T22:22:15.409Z,1.88
2022-08-05T22:25:01.641Z,1.83
2022-08-05T22:28:09.267Z,1.63
2022-08-05T22:30:34.979Z,1.52
2022-08-05T22:33:03.917Z,2.22
2022-08-05T22:35:48.575Z,1.60
2022-08-05T22:38:19.625Z,1.65
2022-08-05T22:40:49.546Z,2.13
2022-08-05T22:43:37.032Z,1.65
2022-08-05T22:46:13.156Z,2.10
2022-08-05T22:48:43.826Z,2.20
2022-08-05T22:51:22.435Z,2.42
2022-08-05T22:53:51.991Z,2.30
2022-08-05T22:56:30.326Z,2.10
2022-08-05T22:59:04.692Z,1.85
2022-08-05T23:02:04.497Z,1.83
2022-08-05T23:04:33.480Z,1.80
2022-08-05T23:07:01.332Z,2.00
2022-08-05T23:09:58.004Z,2.17
2022-08-05T23:12:17.818Z,2.22
2022-08-05T23:14:47.449Z,1.70
2022-08-05T23:17:34.587Z,1.42
2022-08-05T23:20:16.820Z,1.55
2022-08-05T23:22:47.257Z,1.63
2022-08-05T23:25:53.093Z,1.83
2022-08-05T23:28:06.976Z,1.85
2022-08-05T23:30:40.490Z,1.85
2022-08-05T23:33:22.500Z,1.55
2022-08-05T23:36:00.727Z,1.90
2022-08-05T23:38:28.499Z,1.73
2022-08-05T23:40:56.277Z,1.92
2022-08-05T23:43:49.767Z,1.67
2022-08-05T23:46:20.064Z,1.40
2022-08-05T23:49:00.769Z,1.80
2022-08-05T23:51:52.331Z,1.65
2022-08-05T23:54:26.049Z,2.08
2022-08-05T23:56:58.268Z,2.20
